• Join FlightAware (Why Join?)
  • Login
  • US Flag 
08:08PM EDT


 

Airport Tracker/Info


-or-


 

Live Flight TrackerFlight Track Log ✈ SWA1496 ✈ 20-Apr-2013 ✈ KMDW - KOAK

Flight Track Log - Related Links

Times and Time Zones

All times are in EDT time to prevent confusion due to time zone crossing. See the SWA1496 flight status page for this flight to view local times or setup timezone preferences in your user account.

Time Position Orientation Groundspeed Altitude Reporting Facility
EDT Latitude Longitude Course Direction KTS MPH feet Rate Location/Type
10:35AM 41.7833 -87.8333 277° West 223 257 2,700  Level Chicago TRACON
10:36AM 41.7833 -87.9167 270° West 243 280 6,200 3,360 Climbing Chicago TRACON
10:36AM 41.7758 -87.9500 253° West 236 272 7,300 3,540 Climbing Chicago Center
10:37AM 41.7819 -88.0408 275° West 251 289 11,100 2,220 Climbing Chicago Center
10:38AM 41.8011 -88.1303 286° West 252 290 12,000 420 Climbing Chicago Center
10:39AM 41.8167 -88.2194 283° West 250 288 12,000 1,140 Level Chicago Center
10:40AM 41.8680 -88.5973 277° West  Level FlightAware Approximate
10:40AM 41.8444 -88.2983 295° West 260 299 14,400  Level Chicago Center
10:41AM 41.9089 -88.3789 317° Northwest 264 304 17,000 2,400 Climbing Chicago Center
10:42AM 41.9719 -88.4556 318° Northwest 298 343 19,400 2,160 Climbing Chicago Center
10:43AM 42.0389 -88.5386 317° Northwest 321 369 21,500 1,980 Climbing Chicago Center
10:44AM 42.0900 -88.6414 304° West 341 392 23,500 1,860 Climbing Chicago Center
10:45AM 42.0972 -88.7711 274° West 350 403 25,400 1,740 Climbing Chicago Center
10:46AM 42.1053 -88.9189 274° West 364 419 27,200 1,620 Climbing Chicago Center
10:47AM 42.1169 -89.0581 276° West 372 428 28,800 1,620 Climbing Chicago Center
10:48AM 42.1275 -89.1983 276° West 376 433 30,600 1,620 Climbing Chicago Center
10:50AM 42.1400 -89.3650 276° West 380 437 32,200 1,380 Climbing Chicago Center
10:51AM 42.1519 -89.5086 276° West 383 441 33,500 1,260 Climbing Chicago Center
10:52AM 42.1633 -89.6550 276° West 391 450 34,800 1,140 Climbing Chicago Center
10:53AM 42.1731 -89.7967 275° West 383 441 35,900 540 Climbing Chicago Center
10:54AM 42.1842 -89.9456 276° West 387 445 36,000  Climbing Chicago Center
10:55AM 42.1942 -90.0889 275° West 387 445 36,000  Level Chicago Center
10:56AM 42.2039 -90.2331 275° West 388 447 36,000  Level Chicago Center
10:57AM 42.2139 -90.3756 275° West 385 443 36,000  Level Chicago Center
10:58AM 42.2233 -90.5172 275° West 383 441 36,000  Level Chicago Center
10:59AM 42.2342 -90.6842 275° West 376 433 36,000  Level Chicago Center
11:00AM 42.2436 -90.8253 275° West 380 437 36,000  Level Chicago Center
11:01AM 42.2528 -90.9667 275° West 380 437 36,000  Level Chicago Center
11:02AM 42.2603 -91.1100 274° West 383 441 36,000  Level Chicago Center
11:03AM 42.2689 -91.2517 275° West 380 437 36,000  Level Chicago Center
11:04AM 42.2769 -91.3925 274° West 379 436 36,000  Level Chicago Center
11:05AM 42.2853 -91.5353 275° West 382 440 36,000  Level Chicago Center
11:06AM 42.2953 -91.7047 275° West 379 436 36,000  Level Chicago Center
11:07AM 42.3031 -91.8475 274° West 382 440 36,000  Level Chicago Center
11:08AM 42.3108 -91.9906 274° West 381 438 36,000  Level Chicago Center
11:09AM 42.3183 -92.1358 274° West 386 444 36,000  Level Chicago Center
11:10AM 42.3244 -92.2517 274° West 385 443 36,000  Level Minneapolis Center
11:11AM 42.3303 -92.3942 273° West 383 441 36,000  Level Minneapolis Center
11:12AM 42.3378 -92.5364 274° West 381 438 36,000  Level Minneapolis Center
11:13AM 42.3450 -92.6792 274° West 382 440 36,000  Level Minneapolis Center
11:14AM 42.3525 -92.8475 274° West 378 435 36,000  Level Minneapolis Center
11:15AM 42.3586 -92.9900 273° West 381 438 36,000 480 Level Minneapolis Center
11:16AM 42.3656 -93.1319 274° West 381 438 37,000 780 Climbing Minneapolis Center
11:17AM 42.3725 -93.2747 274° West 383 441 37,700 480 Climbing Minneapolis Center
11:18AM 42.3772 -93.4211 273° West 391 450 38,000 120 Climbing Minneapolis Center
11:19AM 42.3844 -93.5717 274° West 400 460 38,000  Level Minneapolis Center
11:20AM 42.3894 -93.7192 273° West 397 457 38,000  Level Minneapolis Center
11:21AM 42.3969 -93.8975 273° West 398 458 38,000  Level Minneapolis Center
11:22AM 42.4014 -94.0439 272° West 394 453 38,000  Level Minneapolis Center
11:23AM 42.4067 -94.1925 273° West 398 458 38,000  Level Minneapolis Center
11:24AM 42.4111 -94.3342 272° West 392 451 38,000  Level Minneapolis Center
11:25AM 42.4167 -94.4814 273° West 392 451 38,000  Level Minneapolis Center
11:26AM 42.4214 -94.6300 273° West 394 453 38,000  Level Minneapolis Center
11:27AM 42.4264 -94.8075 272° West 394 453 38,000  Level Minneapolis Center
11:28AM 42.4308 -94.9553 272° West 394 453 38,000  Level Minneapolis Center
11:29AM 42.4333 -95.1014 271° West 392 451 38,000  Level Minneapolis Center
11:30AM 42.4381 -95.2486 273° West 391 450 38,000  Level Minneapolis Center
11:31AM 42.4408 -95.3961 272° West 393 452 38,000  Level Minneapolis Center
11:32AM 42.4450 -95.5442 272° West 394 453 38,000  Level Minneapolis Center
11:33AM 42.4478 -95.6947 271° West 397 457 38,000  Level Minneapolis Center
11:34AM 42.4503 -95.8472 271° West 401 461 38,000  Level Minneapolis Center
11:35AM 42.4536 -96.0286 271° West 404 465 38,000  Level Minneapolis Center
11:36AM 42.4564 -96.1797 271° West 403 464 38,000  Level Minneapolis Center
11:38AM 42.4592 -96.3303 271° West 402 463 38,000  Level Minneapolis Center
11:39AM 42.4614 -96.4811 271° West 402 463 38,000  Level Minneapolis Center
11:40AM 42.4625 -96.6292 271° West 397 457 38,000  Level Minneapolis Center
11:41AM 42.4647 -96.7756 271° West 392 451 38,000  Level Minneapolis Center
11:42AM 42.4667 -96.9244 271° West 394 453 38,000  Level Minneapolis Center
11:43AM 42.4681 -97.1017 271° West 395 455 38,000  Level Minneapolis Center
11:44AM 42.4686 -97.2514 270° West 398 458 38,000  Level Minneapolis Center
11:45AM 42.4694 -97.4000 270° West 397 457 38,000  Level Minneapolis Center
11:46AM 42.4703 -97.5483 270° West 396 456 38,000  Level Minneapolis Center
11:47AM 42.4725 -97.6986 271° West 400 460 38,000  Level Minneapolis Center
11:48AM 42.4714 -97.8586 270° West 398 458 38,000  Level Minneapolis Center
11:49AM 42.4714 -98.0094 270° West 402 463 38,000  Level Minneapolis Center
11:50AM 42.4714 -98.1603 270° West 402 463 38,000  Level Minneapolis Center
11:51AM 42.4711 -98.3125 270° West 404 465 38,000  Level Minneapolis Center
11:52AM 42.4711 -98.4650 270° West 406 467 38,000  Level Minneapolis Center
11:53AM 42.4714 -98.6456 270° West 402 463 38,000  Level Minneapolis Center
11:54AM 42.4514 -98.7925 260° West 398 458 38,000  Level Minneapolis Center
11:55AM 42.4253 -98.9383 256° West 399 459 38,000  Level Minneapolis Center
11:56AM 42.3992 -99.0831 256° West 398 458 38,000  Level Minneapolis Center
11:57AM 42.3739 -99.2286 257° West 398 458 38,000  Level Minneapolis Center
11:58AM 42.3472 -99.3728 256° West 398 458 38,000  Level Minneapolis Center
11:59AM 42.3247 -99.4906 256° West 399 459 38,000  Level Denver Center
12:00PM 42.2978 -99.6369 256° West 400 460 38,000  Level Denver Center
12:01PM 42.2700 -99.7869 256° West 400 460 38,000  Level Denver Center
12:02PM 42.2386 -99.9511 256° West 403 464 38,000  Level Denver Center
12:03PM 42.2119 -100.0903 256° West 402 463 38,000  Level Denver Center
12:04PM 42.1811 -100.2558 256° West 408 470 38,000  Level Denver Center
12:05PM 42.1536 -100.3944 255° West 404 465 38,000  Level Denver Center
12:06PM 42.1225 -100.5572 256° West 403 464 38,000  Level Denver Center
12:07PM 42.0947 -100.6967 255° West 403 464 38,000  Level Denver Center
12:08PM 42.0633 -100.8572 255° West 400 460 38,000  Level Denver Center
12:09PM 42.0347 -100.9944 254° West 400 460 38,000  Level Denver Center
12:10PM 42.0078 -101.1322 255° West 400 460 38,000  Level Denver Center
12:11PM 41.9761 -101.2933 255° West 400 460 38,000  Level Denver Center
12:12PM 41.9481 -101.4314 255° West 401 461 38,000  Level Denver Center
12:13PM 41.9153 -101.5925 255° West 403 464 38,000  Level Denver Center
12:14PM 41.8867 -101.7289 254° West 400 460 38,000  Level Denver Center
12:15PM 41.8539 -101.8897 255° West 402 463 38,000  Level Denver Center
12:16PM 41.8244 -102.0272 254° West 401 461 38,000  Level Denver Center
12:17PM 41.7903 -102.1889 254° West 405 466 38,000  Level Denver Center
12:18PM 41.7608 -102.3239 254° West 405 466 38,000  Level Denver Center
12:19PM 41.7261 -102.4897 254° West 408 470 38,000  Level Denver Center
12:20PM 41.6967 -102.6281 254° West 410 472 38,000  Level Denver Center
12:21PM 41.6611 -102.7914 254° West 409 471 38,000  Level Denver Center
12:23PM 41.6319 -102.9300 254° West 405 466 38,000  Level Denver Center
12:24PM 41.6008 -103.0689 253° West 408 470 38,000  Level Denver Center
12:25PM 41.5647 -103.2306 253° West 408 470 38,000  Level Denver Center
12:26PM 41.5350 -103.3681 254° West 404 465 38,000  Level Denver Center
12:27PM 41.4986 -103.5300 253° West 406 467 38,000  Level Denver Center
12:28PM 41.4667 -103.6661 253° West 404 465 38,000  Level Denver Center
12:29PM 41.4308 -103.8253 253° West 404 465 38,000  Level Denver Center
12:30PM 41.3992 -103.9664 253° West 409 471 38,000  Level Denver Center
12:31PM 41.3619 -104.1281 253° West 409 471 38,000  Level Denver Center
12:32PM 41.3289 -104.2689 253° West 412 474 38,000  Level Denver Center
12:33PM 41.2961 -104.4106 253° West 418 481 38,000  Level Denver Center
12:34PM 41.2583 -104.5753 253° West 417 480 38,000  Level Denver Center
12:35PM 41.2242 -104.7139 252° West 414 476 38,000  Level Denver Center
12:36PM 41.1919 -104.8775 255° West 410 472 38,000  Level Denver Center
12:37PM 41.1678 -105.0200 257° West 412 474 38,000  Level Denver Center
12:38PM 41.1381 -105.1850 257° West 410 472 38,000  Level Denver Center
12:39PM 41.1144 -105.3269 258° West 410 472 38,000  Level Denver Center
12:40PM 41.0842 -105.4911 256° West 411 473 38,000  Level Denver Center
12:41PM 41.0589 -105.6333 257° West 413 475 38,000  Level Denver Center
12:42PM 41.0281 -105.7994 256° West 416 479 38,000  Level Denver Center
12:43PM 41.0031 -105.9350 256° West 416 479 38,000  Level Denver Center
12:44PM 40.9756 -106.0853 256° West 417 480 38,000  Level Denver Center
12:45PM 40.9458 -106.2528 257° West 416 479 38,000  Level Denver Center
12:46PM 40.9178 -106.3950 255° West 417 480 38,000  Level Denver Center
12:47PM 40.8878 -106.5603 257° West 414 476 38,000  Level Denver Center
12:48PM 40.8592 -106.7031 255° West 419 482 38,000  Level Denver Center
12:49PM 40.8283 -106.8686 256° West 418 481 38,000  Level Denver Center
12:50PM 40.8011 -107.0103 256° West 416 479 38,000  Level Denver Center
12:51PM 40.7692 -107.1742 256° West 413 475 38,000  Level Denver Center
12:52PM 40.7422 -107.3133 256° West 413 475 38,000  Level Denver Center
12:54PM 40.7094 -107.4767 255° West 414 476 38,000  Level Denver Center
12:55PM 40.6817 -107.6161 255° West 412 474 38,000  Level Denver Center
12:56PM 40.6500 -107.7800 256° West 413 475 38,000  Level Denver Center
12:57PM 40.6211 -107.9219 255° West 419 482 38,000  Level Denver Center
12:58PM 40.5875 -108.0853 255° West 418 481 38,000  Level Denver Center
12:59PM 40.5572 -108.2308 255° West 417 480 38,000  Level Salt Lake Center
01:00PM 40.5242 -108.3953 255° West 417 480 38,000  Level Salt Lake Center
01:01PM 40.4953 -108.5314 254° West 420 483 38,000  Level Denver Center
01:02PM 40.4600 -108.6958 254° West 421 484 38,000  Level Denver Center
01:03PM 40.4303 -108.8392 255° West 425 489 38,000  Level Denver Center
01:04PM 40.3950 -109.0044 254° West 423 487 38,000  Level Salt Lake Center
01:05PM 40.3644 -109.1475 254° West 425 489 38,000  Level Salt Lake Center
01:06PM 40.3344 -109.2894 255° West 424 488 38,000  Level Salt Lake Center
01:07PM 40.2983 -109.4533 254° West 423 487 38,000  Level Salt Lake Center
01:08PM 40.2681 -109.5933 254° West 419 482 38,000  Level Salt Lake Center
01:09PM 40.2319 -109.7567 254° West 419 482 38,000  Level Salt Lake Center
01:10PM 40.2014 -109.8950 254° West 416 479 38,000  Level Salt Lake Center
01:11PM 40.1700 -110.0308 253° West 411 473 38,000  Level Salt Lake Center
01:12PM 40.1303 -110.1872 252° West 407 468 38,000  Level Salt Lake Center
01:13PM 40.0842 -110.3211 246° West 419 482 38,000  Level Salt Lake Center
01:14PM 40.0292 -110.4744 245° Southwest 418 481 38,000  Level Salt Lake Center
01:15PM 39.9842 -110.6089 246° West 423 487 38,000  Level Salt Lake Center
01:16PM 39.9383 -110.7397 245° Southwest 418 481 38,000  Level Salt Lake Center
01:17PM 39.8833 -110.8956 245° Southwest 423 487 38,000  Level Salt Lake Center
01:18PM 39.8386 -111.0283 246° West 421 484 38,000  Level Salt Lake Center
01:19PM 39.7831 -111.1839 245° Southwest 424 488 38,000  Level Salt Lake Center
01:20PM 39.7358 -111.3175 245° Southwest 426 490 38,000  Level Salt Lake Center
01:21PM 39.6864 -111.4572 245° Southwest 426 490 38,000  Level Salt Lake Center
01:22PM 39.6369 -111.5939 245° Southwest 422 486 38,000  Level Salt Lake Center
01:23PM 39.5872 -111.7308 245° Southwest 421 484 38,000  Level Salt Lake Center
01:24PM 39.5369 -111.8678 245° Southwest 421 484 38,000  Level Salt Lake Center
01:25PM 39.4881 -112.0053 245° Southwest 420 483 38,000  Level Salt Lake Center
01:26PM 39.4381 -112.1406 244° Southwest 419 482 38,000  Level Salt Lake Center
01:27PM 39.3781 -112.3017 244° Southwest 416 479 38,000  Level Salt Lake Center
01:28PM 39.3286 -112.4372 245° Southwest 417 480 38,000  Level Salt Lake Center
01:29PM 39.2908 -112.5728 250° West 405 466 38,000  Level Salt Lake Center
01:30PM 39.2669 -112.7019 257° West 402 463 38,000  Level Salt Lake Center
01:31PM 39.2417 -112.8389 257° West 397 457 38,000  Level Salt Lake Center
01:32PM 39.2111 -113.0056 257° West 398 458 38,000  Level Salt Lake Center
01:33PM 39.1853 -113.1414 256° West 396 456 38,000  Level Salt Lake Center
01:35PM 39.1603 -113.2769 257° West 393 452 38,000  Level Salt Lake Center
01:36PM 39.1342 -113.4142 256° West 395 455 38,000  Level Salt Lake Center
01:37PM 39.1092 -113.5467 256° West 387 445 38,000  Level Salt Lake Center
01:38PM 39.0833 -113.6803 256° West 386 444 38,000  Level Salt Lake Center
01:39PM 39.0581 -113.8136 256° West 387 445 38,000  Level Salt Lake Center
01:40PM 39.0314 -113.9489 256° West 390 449 38,000  Level Salt Lake Center
01:41PM 38.9997 -114.1119 256° West 393 452 38,000  Level Salt Lake Center
01:42PM 38.9733 -114.2461 256° West 390 449 38,000  Level Salt Lake Center
01:43PM 38.9461 -114.3814 256° West 393 452 38,000  Level Salt Lake Center
01:44PM 38.9192 -114.5181 256° West 395 455 38,000  Level Salt Lake Center
01:45PM 38.8917 -114.6536 255° West 395 455 38,000  Level Salt Lake Center
01:46PM 38.8647 -114.7897 256° West 396 456 38,000  Level Salt Lake Center
01:47PM 38.8364 -114.9253 255° West 395 455 38,000  Level Salt Lake Center
01:48PM 38.8025 -115.0881 255° West 396 456 38,000  Level Salt Lake Center
01:49PM 38.7719 -115.2278 254° West 404 465 38,000  Level Salt Lake Center
01:50PM 38.7444 -115.3608 255° West 401 461 38,000  Level Salt Lake Center
01:51PM 38.7175 -115.4928 255° West 392 451 38,000  Level Salt Lake Center
01:52PM 38.6894 -115.6258 255° West 388 447 38,000  Level Salt Lake Center
01:53PM 38.6617 -115.7581 255° West 387 445 38,000  Level Salt Lake Center
01:54PM 38.6278 -115.9139 254° West 380 437 38,000  Level Salt Lake Center
01:55PM 38.6008 -116.0450 255° West 382 440 38,000  Level Salt Lake Center
01:56PM 38.5725 -116.1758 255° West 382 440 38,000  Level Oakland Center
01:57PM 38.5456 -116.3072 255° West 383 441 38,000  Level Oakland Center
01:58PM 38.5167 -116.4364 254° West 379 436 38,000  Level Salt Lake Center
01:59PM 38.4878 -116.5636 254° West 376 433 38,000  Level Salt Lake Center
02:00PM 38.4600 -116.6919 255° West 374 430 38,000  Level Oakland Center
02:01PM 38.4325 -116.8186 255° West 372 428 38,000  Level Oakland Center
02:02PM 38.3978 -116.9703 254° West 372 428 38,000  Level Oakland Center
02:03PM 38.3694 -117.0972 254° West 375 432 38,000  Level Oakland Center
02:04PM 38.3392 -117.2347 254° West 378 435 38,000  Level Oakland Center
02:05PM 38.3183 -117.3639 258° West 372 428 38,000  Level Oakland Center
02:06PM 38.3036 -117.4811 261° West 373 429 38,000  Level Oakland Center
02:07PM 38.2872 -117.6122 261° West 377 434 38,000  Level Oakland Center
02:08PM 38.2714 -117.7433 261° West 378 435 38,000  Level Oakland Center
02:09PM 38.2508 -117.9019 261° West 380 437 38,000  Level Oakland Center
02:10PM 38.2342 -118.0328 261° West 378 435 38,000  Level Oakland Center
02:11PM 38.2183 -118.1558 261° West 378 435 38,000  Level Oakland Center
02:12PM 38.2019 -118.2889 261° West 381 438 38,000  Level Oakland Center
02:13PM 38.1844 -118.4203 260° West 379 436 38,000  Level Oakland Center
02:14PM 38.1669 -118.5539 261° West 383 441 38,000  Level Oakland Center
02:16PM 38.1447 -118.7164 260° West 389 448 38,000  Level Oakland Center
02:17PM 38.1300 -118.8297 261° West 382 440 38,000  Level Oakland Center
02:18PM 38.1111 -118.9644 260° West 386 444 38,000  Level Oakland Center
02:19PM 38.0906 -119.1261 261° West 388 447 38,000  Level Oakland Center
02:20PM 38.0700 -119.2572 259° West 391 450 38,000 -60 Level Oakland Center
02:21PM 38.0517 -119.3928 260° West 390 449 37,900 -540 Descending Oakland Center
02:22PM 38.0347 -119.5267 261° West 385 443 36,900 -1,020 Descending Oakland Center
02:23PM 38.0164 -119.6614 260° West 387 445 35,900 -960 Descending Oakland Center
02:24PM 37.9958 -119.7994 259° West 395 455 35,000 -960 Descending Oakland Center
02:25PM 37.9753 -119.9397 260° West 403 464 34,000 -1,380 Descending Oakland Center
02:26PM 37.9531 -120.0797 259° West 405 466 32,200 -1,920 Descending Oakland Center
02:27PM 37.9331 -120.2225 260° West 409 471 30,100 -2,040 Descending Oakland Center
02:28PM 37.9106 -120.3614 258° West 403 464 28,100 -2,040 Descending Oakland Center
02:29PM 37.8875 -120.5208 260° West 384 442 26,000 -1,920 Descending Oakland Center
02:30PM 37.8672 -120.6514 259° West 378 435 24,300 -2,040 Descending Oakland Center
02:30PM 37.8667 -120.7333 270° West 361 415 22,600 -2,520 Descending Northern Cal TRACON
02:31PM 37.8500 -120.8667 261° West 353 406 20,100 -2,580 Descending Northern Cal TRACON
02:32PM 37.8500 -120.9833 270° West 358 412 17,500 -2,700 Descending Northern Cal TRACON
02:33PM 37.8333 -121.1167 261° West 361 415 14,800 -2,460 Descending Northern Cal TRACON
02:34PM 37.8167 -121.2333 260° West 355 409 12,600 -1,500 Descending Northern Cal TRACON
02:35PM 37.7667 -121.3333 238° Southwest 330 380 11,900 -840 Descending Northern Cal TRACON
02:36PM 37.7333 -121.4333 247° West 302 348 11,100 -960 Descending Northern Cal TRACON
02:37PM 37.7000 -121.5167 243° Southwest 293 337 10,100 -1,080 Descending Northern Cal TRACON
02:38PM 37.6667 -121.6167 247° West 293 337 9,000 -1,260 Descending Northern Cal TRACON
02:39PM 37.6500 -121.7167 258° West 288 331 7,600 -1,140 Descending Northern Cal TRACON
02:40PM 37.6167 -121.8000 243° Southwest 280 322 6,900 -1,080 Descending Northern Cal TRACON
02:41PM 37.5833 -121.8833 243° Southwest 285 328 5,600 -1,440 Descending Northern Cal TRACON
02:42PM 37.6000 -121.9833 282° West 269 310 4,100 -1,380 Descending Northern Cal TRACON
02:43PM 37.6167 -122.0667 284° West 224 258 2,900 -1,080 Descending Northern Cal TRACON
02:44PM 37.6258 -122.1047 287° West 216 249 2,200 -780 Descending Oakland Center
02:45PM 37.6522 -122.1414 312° West 166 191 1,500 -720 Descending Oakland Center
02:46PM 37.6756 -122.1767 310° West 146 168 800 -720 Descending Oakland Center
02:47PM 37.6994 -122.2117 311° West 137 158 100 -720 Descending Oakland Center
02:49PM 37.7167 -122.2167 270° West  Level FlightAware Approximate
02:56PM 37.7213 -122.2207 270° West  Level Estimated